sensor_id;sensor_type;location;lat;lon;timestamp;pressure;altitude;pressure_sealevel;temperature;humidity
68508;BME280;55510;49.560;19.090;2022-10-16T13:09:54;97132.41;;;25.62;35.91
68508;BME280;55510;49.560;19.090;2022-10-16T13:13:40;97136.66;;;24.40;39.59
68508;BME280;55510;49.560;19.090;2022-10-16T13:20:34;97152.19;;;21.82;44.51
68508;BME280;55510;49.560;19.090;2022-10-16T13:27:07;97135.47;;;20.22;49.02
68508;BME280;55510;49.560;19.090;2022-10-16T13:30:19;97142.00;;;19.62;50.48
68508;BME280;55510;49.560;19.090;2022-10-16T13:36:43;97135.78;;;19.26;52.26
68508;BME280;55510;49.560;19.090;2022-10-16T13:39:44;97141.91;;;19.72;51.11
68508;BME280;55510;49.560;19.090;2022-10-16T13:42:45;97140.69;;;19.89;50.20
68508;BME280;55510;49.560;19.090;2022-10-16T13:49:00;97134.16;;;20.87;48.27
68508;BME280;55510;49.560;19.090;2022-10-16T13:52:01;97146.31;;;21.42;47.73
68508;BME280;55510;49.560;19.090;2022-10-16T13:55:13;97152.59;;;21.23;45.92
68508;BME280;55510;49.560;19.090;2022-10-16T13:58:14;97162.38;;;20.81;46.81
68508;BME280;55510;49.560;19.090;2022-10-16T14:01:19;97162.78;;;20.20;49.06
68508;BME280;55510;49.560;19.090;2022-10-16T14:04:21;97159.13;;;19.76;50.77
68508;BME280;55510;49.560;19.090;2022-10-16T14:07:26;97151.72;;;19.28;52.00
68508;BME280;55510;49.560;19.090;2022-10-16T14:10:30;97149.25;;;18.87;53.18
68508;BME280;55510;49.560;19.090;2022-10-16T14:13:40;97140.44;;;18.70;53.22
68508;BME280;55510;49.560;19.090;2022-10-16T14:16:43;97152.84;;;18.72;54.40
68508;BME280;55510;49.560;19.090;2022-10-16T14:19:49;97156.13;;;18.58;54.36
68508;BME280;55510;49.560;19.090;2022-10-16T14:23:01;97153.53;;;18.32;55.35
68508;BME280;55510;49.560;19.090;2022-10-16T14:29:14;97154.56;;;18.47;55.60
68508;BME280;55510;49.560;19.090;2022-10-16T14:32:23;97156.75;;;18.39;55.62
68508;BME280;55510;49.560;19.090;2022-10-16T14:35:28;97158.94;;;18.32;55.55
68508;BME280;55510;49.560;19.090;2022-10-16T14:38:30;97171.03;;;18.30;56.12
68508;BME280;55510;49.560;19.090;2022-10-16T14:41:41;97168.91;;;18.21;55.69
68508;BME280;55510;49.560;19.090;2022-10-16T14:44:44;97165.19;;;18.12;56.28
68508;BME280;55510;49.560;19.090;2022-10-16T14:47:54;97164.66;;;18.00;56.74
68508;BME280;55510;49.560;19.090;2022-10-16T14:50:56;97171.09;;;17.88;58.03
68508;BME280;55510;49.560;19.090;2022-10-16T14:53:56;97153.09;;;17.78;57.57
68508;BME280;55510;49.560;19.090;2022-10-16T14:56:58;97163.88;;;17.63;58.48
68508;BME280;55510;49.560;19.090;2022-10-16T14:59:59;97166.81;;;17.40;58.76
68508;BME280;55510;49.560;19.090;2022-10-16T15:03:00;97166.56;;;17.27;59.87
68508;BME280;55510;49.560;19.090;2022-10-16T15:06:00;97176.22;;;17.12;61.06
68508;BME280;55510;49.560;19.090;2022-10-16T15:09:01;97173.47;;;16.96;61.87
68508;BME280;55510;49.560;19.090;2022-10-16T15:12:02;97172.88;;;16.79;62.62
68508;BME280;55510;49.560;19.090;2022-10-16T15:15:36;97179.81;;;16.64;63.61
68508;BME280;55510;49.560;19.090;2022-10-16T15:18:37;97192.16;;;16.55;64.01
68508;BME280;55510;49.560;19.090;2022-10-16T15:21:38;97185.66;;;16.46;64.15
68508;BME280;55510;49.560;19.090;2022-10-16T15:24:38;97186.41;;;16.36;64.69
68508;BME280;55510;49.560;19.090;2022-10-16T15:27:40;97191.44;;;16.22;65.18
68508;BME280;55510;49.560;19.090;2022-10-16T15:30:41;97198.63;;;16.11;65.65
68508;BME280;55510;49.560;19.090;2022-10-16T15:33:42;97199.09;;;15.98;66.88
68508;BME280;55510;49.560;19.090;2022-10-16T15:36:45;97207.25;;;15.80;67.34
68508;BME280;55510;49.560;19.090;2022-10-16T15:39:46;97206.88;;;15.66;68.23
68508;BME280;55510;49.560;19.090;2022-10-16T15:42:47;97205.97;;;15.50;69.03
68508;BME280;55510;49.560;19.090;2022-10-16T15:46:01;97214.63;;;15.30;70.77
68508;BME280;55510;49.560;19.090;2022-10-16T15:49:03;97217.34;;;15.08;72.07
68508;BME280;55510;49.560;19.090;2022-10-16T15:52:03;97213.88;;;14.85;73.28
68508;BME280;55510;49.560;19.090;2022-10-16T15:55:06;97207.19;;;14.65;74.02
68508;BME280;55510;49.560;19.090;2022-10-16T15:58:07;97209.34;;;14.24;77.00
68508;BME280;55510;49.560;19.090;2022-10-16T16:01:07;97212.06;;;14.07;77.21
68508;BME280;55510;49.560;19.090;2022-10-16T16:04:10;97214.75;;;13.90;78.11
68508;BME280;55510;49.560;19.090;2022-10-16T16:07:11;97219.75;;;13.69;78.92
68508;BME280;55510;49.560;19.090;2022-10-16T16:10:12;97226.72;;;13.53;79.74
68508;BME280;55510;49.560;19.090;2022-10-16T16:13:13;97227.81;;;13.40;80.53
68508;BME280;55510;49.560;19.090;2022-10-16T16:16:15;97238.81;;;13.27;81.24
68508;BME280;55510;49.560;19.090;2022-10-16T16:19:16;97229.22;;;13.14;82.32
68508;BME280;55510;49.560;19.090;2022-10-16T16:22:21;97235.47;;;12.90;84.51
68508;BME280;55510;49.560;19.090;2022-10-16T16:25:22;97244.34;;;12.67;85.44
68508;BME280;55510;49.560;19.090;2022-10-16T16:28:22;97244.38;;;12.55;85.79
68508;BME280;55510;49.560;19.090;2022-10-16T16:31:24;97254.47;;;12.29;87.95
68508;BME280;55510;49.560;19.090;2022-10-16T16:34:27;97257.16;;;12.06;90.11
68508;BME280;55510;49.560;19.090;2022-10-16T16:37:28;97260.16;;;11.97;90.18
68508;BME280;55510;49.560;19.090;2022-10-16T16:40:29;97271.59;;;11.86;90.99
68508;BME280;55510;49.560;19.090;2022-10-16T16:43:29;97268.22;;;11.79;90.77
68508;BME280;55510;49.560;19.090;2022-10-16T16:46:31;97266.84;;;11.76;90.52
68508;BME280;55510;49.560;19.090;2022-10-16T16:49:32;97260.94;;;11.74;90.45
68508;BME280;55510;49.560;19.090;2022-10-16T16:52:34;97276.09;;;11.73;90.04
68508;BME280;55510;49.560;19.090;2022-10-16T16:55:35;97280.72;;;11.66;89.75
68508;BME280;55510;49.560;19.090;2022-10-16T16:58:36;97282.91;;;11.57;90.05
68508;BME280;55510;49.560;19.090;2022-10-16T17:01:36;97285.69;;;11.51;90.11
68508;BME280;55510;49.560;19.090;2022-10-16T17:04:37;97280.66;;;11.42;90.30
68508;BME280;55510;49.560;19.090;2022-10-16T17:07:38;97287.47;;;11.38;90.54
68508;BME280;55510;49.560;19.090;2022-10-16T17:10:44;97290.38;;;11.37;90.93
68508;BME280;55510;49.560;19.090;2022-10-16T17:13:44;97296.16;;;11.34;90.93
68508;BME280;55510;49.560;19.090;2022-10-16T17:16:46;97303.19;;;11.28;91.12
68508;BME280;55510;49.560;19.090;2022-10-16T17:19:50;97305.50;;;11.24;91.19
68508;BME280;55510;49.560;19.090;2022-10-16T17:22:50;97302.34;;;11.15;91.28
68508;BME280;55510;49.560;19.090;2022-10-16T17:25:51;97307.41;;;11.05;91.63
68508;BME280;55510;49.560;19.090;2022-10-16T17:28:53;97324.34;;;10.92;91.71
68508;BME280;55510;49.560;19.090;2022-10-16T17:31:55;97322.47;;;10.74;93.46
68508;BME280;55510;49.560;19.090;2022-10-16T17:34:56;97331.34;;;10.68;93.46
68508;BME280;55510;49.560;19.090;2022-10-16T17:37:57;97334.91;;;10.62;93.45
68508;BME280;55510;49.560;19.090;2022-10-16T17:40:57;97339.53;;;10.48;94.74
68508;BME280;55510;49.560;19.090;2022-10-16T17:43:58;97343.88;;;10.42;94.66
68508;BME280;55510;49.560;19.090;2022-10-16T17:47:01;97361.72;;;10.35;94.02
68508;BME280;55510;49.560;19.090;2022-10-16T17:50:03;97359.38;;;10.20;96.18
68508;BME280;55510;49.560;19.090;2022-10-16T17:53:04;97357.16;;;10.16;96.13
68508;BME280;55510;49.560;19.090;2022-10-16T17:56:12;97358.22;;;10.09;96.21
68508;BME280;55510;49.560;19.090;2022-10-16T17:59:13;97363.97;;;10.06;96.06
68508;BME280;55510;49.560;19.090;2022-10-16T18:02:14;97371.59;;;10.02;96.11
68508;BME280;55510;49.560;19.090;2022-10-16T18:05:16;97380.19;;;9.97;96.49
68508;BME280;55510;49.560;19.090;2022-10-16T18:08:17;97377.97;;;9.94;96.29
68508;BME280;55510;49.560;19.090;2022-10-16T18:11:19;97382.28;;;9.89;95.97
68508;BME280;55510;49.560;19.090;2022-10-16T18:14:20;97384.19;;;9.81;96.05
68508;BME280;55510;49.560;19.090;2022-10-16T18:17:20;97396.50;;;9.76;96.57
68508;BME280;55510;49.560;19.090;2022-10-16T18:20:21;97392.00;;;9.69;96.46
68508;BME280;55510;49.560;19.090;2022-10-16T18:23:22;97399.81;;;9.64;96.53
68508;BME280;55510;49.560;19.090;2022-10-16T18:26:23;97411.09;;;9.60;96.77
68508;BME280;55510;49.560;19.090;2022-10-16T18:29:27;97403.50;;;9.63;98.19
68508;BME280;55510;49.560;19.090;2022-10-16T18:32:28;97417.38;;;9.65;98.67
68508;BME280;55510;49.560;19.090;2022-10-16T18:35:29;97419.03;;;9.66;98.65
68508;BME280;55510;49.560;19.090;2022-10-16T18:38:30;97425.97;;;9.67;98.97
68508;BME280;55510;49.560;19.090;2022-10-16T18:41:31;97427.59;;;9.68;99.23
68508;BME280;55510;49.560;19.090;2022-10-16T18:44:32;97434.53;;;9.76;100.00
68508;BME280;55510;49.560;19.090;2022-10-16T18:47:33;97444.09;;;9.84;100.00
68508;BME280;55510;49.560;19.090;2022-10-16T18:50:33;97438.31;;;9.94;100.00
68508;BME280;55510;49.560;19.090;2022-10-16T18:53:36;97436.03;;;9.97;100.00
68508;BME280;55510;49.560;19.090;2022-10-16T18:56:38;97444.63;;;9.99;99.84
68508;BME280;55510;49.560;19.090;2022-10-16T18:59:39;97450.97;;;9.98;99.52
68508;BME280;55510;49.560;19.090;2022-10-16T19:02:40;97456.53;;;9.97;99.83
68508;BME280;55510;49.560;19.090;2022-10-16T19:05:40;97455.09;;;9.94;99.65
68508;BME280;55510;49.560;19.090;2022-10-16T19:08:45;97456.13;;;9.93;99.55
68508;BME280;55510;49.560;19.090;2022-10-16T19:11:46;97453.06;;;9.90;99.46
68508;BME280;55510;49.560;19.090;2022-10-16T19:14:47;97452.44;;;9.87;99.59
68508;BME280;55510;49.560;19.090;2022-10-16T19:17:48;97465.16;;;9.85;99.30
68508;BME280;55510;49.560;19.090;2022-10-16T19:20:49;97470.88;;;9.82;99.36
68508;BME280;55510;49.560;19.090;2022-10-16T19:23:54;97471.31;;;9.79;99.38
68508;BME280;55510;49.560;19.090;2022-10-16T19:26:55;97470.94;;;9.76;99.39
68508;BME280;55510;49.560;19.090;2022-10-16T19:29:57;97475.66;;;9.74;99.99
68508;BME280;55510;49.560;19.090;2022-10-16T19:32:57;97478.94;;;9.69;99.91
68508;BME280;55510;49.560;19.090;2022-10-16T19:36:08;97476.72;;;9.59;99.22
68508;BME280;55510;49.560;19.090;2022-10-16T19:39:14;97484.13;;;9.50;99.19
68508;BME280;55510;49.560;19.090;2022-10-16T19:42:16;97475.53;;;9.41;99.06
68508;BME280;55510;49.560;19.090;2022-10-16T19:45:17;97478.44;;;9.33;98.96
68508;BME280;55510;49.560;19.090;2022-10-16T19:48:18;97489.88;;;9.27;99.50
68508;BME280;55510;49.560;19.090;2022-10-16T19:51:18;97498.66;;;9.21;99.61
68508;BME280;55510;49.560;19.090;2022-10-16T19:54:19;97502.16;;;9.14;99.71
68508;BME280;55510;49.560;19.090;2022-10-16T19:57:22;97505.44;;;9.10;99.98
68508;BME280;55510;49.560;19.090;2022-10-16T20:00:27;97504.41;;;9.04;100.00
68508;BME280;55510;49.560;19.090;2022-10-16T20:03:27;97507.06;;;9.04;100.00
68508;BME280;55510;49.560;19.090;2022-10-16T20:06:28;97515.47;;;9.01;100.00
68508;BME280;55510;49.560;19.090;2022-10-16T20:09:28;97523.41;;;9.01;100.00
68508;BME280;55510;49.560;19.090;2022-10-16T20:12:29;97519.53;;;9.04;100.00
68508;BME280;55510;49.560;19.090;2022-10-16T20:15:30;97515.84;;;9.05;100.00
68508;BME280;55510;49.560;19.090;2022-10-16T20:18:31;97520.78;;;9.08;100.00
68508;BME280;55510;49.560;19.090;2022-10-16T20:21:33;97520.13;;;9.12;100.00
68508;BME280;55510;49.560;19.090;2022-10-16T20:24:34;97518.09;;;9.14;100.00
68508;BME280;55510;49.560;19.090;2022-10-16T20:27:35;97524.44;;;9.20;100.00
68508;BME280;55510;49.560;19.090;2022-10-16T20:30:38;97526.66;;;9.23;100.00
68508;BME280;55510;49.560;19.090;2022-10-16T20:33:40;97528.06;;;9.26;100.00
68508;BME280;55510;49.560;19.090;2022-10-16T20:36:42;97519.31;;;9.25;100.00
68508;BME280;55510;49.560;19.090;2022-10-16T20:39:49;97522.75;;;9.26;100.00
68508;BME280;55510;49.560;19.090;2022-10-16T20:42:50;97533.38;;;9.26;100.00
68508;BME280;55510;49.560;19.090;2022-10-16T20:46:01;97530.53;;;9.27;100.00
68508;BME280;55510;49.560;19.090;2022-10-16T20:49:05;97535.66;;;9.29;100.00
68508;BME280;55510;49.560;19.090;2022-10-16T20:52:08;97536.69;;;9.28;100.00
68508;BME280;55510;49.560;19.090;2022-10-16T20:55:08;97546.28;;;9.29;100.00
68508;BME280;55510;49.560;19.090;2022-10-16T20:58:09;97546.28;;;9.29;100.00
68508;BME280;55510;49.560;19.090;2022-10-16T21:01:17;97539.13;;;9.29;100.00
68508;BME280;55510;49.560;19.090;2022-10-16T21:04:17;97539.72;;;9.32;100.00
68508;BME280;55510;49.560;19.090;2022-10-16T21:07:18;97545.88;;;9.32;100.00
68508;BME280;55510;49.560;19.090;2022-10-16T21:10:19;97543.22;;;9.32;100.00
68508;BME280;55510;49.560;19.090;2022-10-16T21:13:19;97553.22;;;9.30;100.00
68508;BME280;55510;49.560;19.090;2022-10-16T21:16:20;97553.00;;;9.25;100.00
68508;BME280;55510;49.560;19.090;2022-10-16T21:19:21;97561.81;;;9.19;100.00
68508;BME280;55510;49.560;19.090;2022-10-16T21:22:22;97556.72;;;9.17;100.00
68508;BME280;55510;49.560;19.090;2022-10-16T21:25:23;97565.47;;;9.18;100.00
68508;BME280;55510;49.560;19.090;2022-10-16T21:28:23;97572.84;;;9.16;100.00
68508;BME280;55510;49.560;19.090;2022-10-16T21:31:24;97575.28;;;9.10;100.00
68508;BME280;55510;49.560;19.090;2022-10-16T21:34:25;97577.34;;;9.08;100.00
68508;BME280;55510;49.560;19.090;2022-10-16T21:37:26;97577.75;;;9.05;100.00
68508;BME280;55510;49.560;19.090;2022-10-16T21:40:28;97576.53;;;9.01;100.00
68508;BME280;55510;49.560;19.090;2022-10-16T21:43:29;97580.59;;;8.97;100.00
68508;BME280;55510;49.560;19.090;2022-10-16T21:46:31;97589.59;;;8.96;100.00
68508;BME280;55510;49.560;19.090;2022-10-16T21:49:32;97581.63;;;8.96;100.00
68508;BME280;55510;49.560;19.090;2022-10-16T21:52:33;97586.94;;;8.96;100.00
68508;BME280;55510;49.560;19.090;2022-10-16T21:55:35;97586.94;;;8.96;100.00
68508;BME280;55510;49.560;19.090;2022-10-16T21:58:35;97597.56;;;8.96;100.00
68508;BME280;55510;49.560;19.090;2022-10-16T22:01:36;97603.28;;;8.93;100.00
68508;BME280;55510;49.560;19.090;2022-10-16T22:04:37;97606.34;;;8.90;100.00
68508;BME280;55510;49.560;19.090;2022-10-16T22:07:38;97601.81;;;8.83;100.00
68508;BME280;55510;49.560;19.090;2022-10-16T22:10:38;97600.19;;;8.76;100.00
68508;BME280;55510;49.560;19.090;2022-10-16T22:13:40;97599.75;;;8.72;100.00
68508;BME280;55510;49.560;19.090;2022-10-16T22:16:41;97598.94;;;8.65;100.00
68508;BME280;55510;49.560;19.090;2022-10-16T22:19:42;97603.00;;;8.61;100.00
68508;BME280;55510;49.560;19.090;2022-10-16T22:22:42;97614.03;;;8.58;100.00
68508;BME280;55510;49.560;19.090;2022-10-16T22:25:43;97608.50;;;8.52;100.00
68508;BME280;55510;49.560;19.090;2022-10-16T22:28:44;97615.84;;;8.50;100.00
68508;BME280;55510;49.560;19.090;2022-10-16T22:31:44;97615.44;;;8.53;100.00
68508;BME280;55510;49.560;19.090;2022-10-16T22:34:45;97615.84;;;8.57;100.00
68508;BME280;55510;49.560;19.090;2022-10-16T22:37:46;97615.84;;;8.57;100.00
68508;BME280;55510;49.560;19.090;2022-10-16T22:40:46;97619.72;;;8.54;100.00
68508;BME280;55510;49.560;19.090;2022-10-16T22:43:48;97612.19;;;8.51;100.00
68508;BME280;55510;49.560;19.090;2022-10-16T22:46:49;97609.53;;;8.51;100.00
68508;BME280;55510;49.560;19.090;2022-10-16T22:49:50;97614.22;;;8.56;100.00
68508;BME280;55510;49.560;19.090;2022-10-16T22:52:51;97610.38;;;8.65;100.00
68508;BME280;55510;49.560;19.090;2022-10-16T22:55:52;97614.44;;;8.68;100.00
68508;BME280;55510;49.560;19.090;2022-10-16T22:58:52;97612.41;;;8.70;100.00
68508;BME280;55510;49.560;19.090;2022-10-16T23:01:53;97616.50;;;8.66;100.00
68508;BME280;55510;49.560;19.090;2022-10-16T23:04:54;97611.59;;;8.63;100.00
68508;BME280;55510;49.560;19.090;2022-10-16T23:07:55;97619.34;;;8.58;100.00
68508;BME280;55510;49.560;19.090;2022-10-16T23:10:55;97622.19;;;8.49;100.00
68508;BME280;55510;49.560;19.090;2022-10-16T23:14:00;97626.41;;;8.44;100.00
68508;BME280;55510;49.560;19.090;2022-10-16T23:17:00;97622.69;;;8.38;100.00
68508;BME280;55510;49.560;19.090;2022-10-16T23:20:01;97628.78;;;8.32;100.00
68508;BME280;55510;49.560;19.090;2022-10-16T23:23:02;97623.47;;;8.25;100.00
68508;BME280;55510;49.560;19.090;2022-10-16T23:26:10;97633.66;;;8.21;100.00
68508;BME280;55510;49.560;19.090;2022-10-16T23:29:11;97626.94;;;8.19;100.00
68508;BME280;55510;49.560;19.090;2022-10-16T23:32:12;97630.59;;;8.18;100.00
68508;BME280;55510;49.560;19.090;2022-10-16T23:35:12;97631.78;;;8.15;100.00
68508;BME280;55510;49.560;19.090;2022-10-16T23:38:13;97639.13;;;8.13;100.00
68508;BME280;55510;49.560;19.090;2022-10-16T23:41:14;97640.72;;;8.07;100.00
68508;BME280;55510;49.560;19.090;2022-10-16T23:44:15;97637.84;;;8.02;100.00
68508;BME280;55510;49.560;19.090;2022-10-16T23:47:16;97637.63;;;7.97;100.00
68508;BME280;55510;49.560;19.090;2022-10-16T23:50:18;97644.13;;;7.94;100.00
68508;BME280;55510;49.560;19.090;2022-10-16T23:53:18;97643.69;;;7.91;100.00
68508;BME280;55510;49.560;19.090;2022-10-16T23:56:19;97647.56;;;7.88;100.00
68508;BME280;55510;49.560;19.090;2022-10-16T23:59:20;97644.50;;;7.84;100.00
